createdAt,value
2017-12-26T00:01:27.793Z,100398.02
2017-12-26T00:03:55.514Z,100392.89
2017-12-26T00:06:23.213Z,100393.63
2017-12-26T00:08:50.886Z,100385.32
2017-12-26T00:11:18.551Z,100381.87
2017-12-26T00:13:46.221Z,100376.23
2017-12-26T00:16:13.879Z,100368.17
2017-12-26T00:18:41.623Z,100358.95
2017-12-26T00:21:09.310Z,100358.29
2017-12-26T00:23:37.017Z,100357.78
2017-12-26T00:26:04.692Z,100355.88
2017-12-26T00:28:32.366Z,100353.30
2017-12-26T00:31:00.036Z,100344.86
2017-12-26T00:33:27.671Z,100342.93
2017-12-26T00:35:55.410Z,100338.83
2017-12-26T00:38:23.027Z,100341.39
2017-12-26T00:40:50.756Z,100336.45
2017-12-26T00:43:18.374Z,100327.23
2017-12-26T00:45:46.104Z,100322.42
2017-12-26T00:48:13.821Z,100324.37
2017-12-26T00:50:41.566Z,100320.36
2017-12-26T00:53:09.240Z,100319.70
2017-12-26T00:55:36.926Z,100301.04
2017-12-26T00:58:04.652Z,100297.20
2017-12-26T01:00:32.269Z,100289.19
2017-12-26T01:02:59.995Z,100290.23
2017-12-26T01:05:27.610Z,100288.02
2017-12-26T01:07:55.278Z,100298.81
2017-12-26T01:10:22.908Z,100299.78
2017-12-26T01:12:50.636Z,100296.19
2017-12-26T01:15:18.281Z,100296.61
2017-12-26T01:17:46.941Z,100296.09
2017-12-26T01:20:14.638Z,100299.27
2017-12-26T01:22:42.314Z,100282.02
2017-12-26T01:25:09.992Z,100274.28
2017-12-26T01:27:37.710Z,100268.44
2017-12-26T01:30:05.407Z,100264.19
2017-12-26T01:32:33.072Z,100259.53
2017-12-26T01:35:00.752Z,100265.62
2017-12-26T01:37:28.476Z,100249.89
2017-12-26T01:39:56.153Z,100260.13
2017-12-26T01:42:23.879Z,100250.08
2017-12-26T01:44:51.559Z,100244.23
2017-12-26T01:47:19.278Z,100237.95
2017-12-26T01:49:46.954Z,100244.73
2017-12-26T01:52:14.676Z,100227.81
2017-12-26T01:54:42.291Z,100226.47
2017-12-26T01:57:10.016Z,100225.38
2017-12-26T01:59:37.692Z,100218.36
2017-12-26T02:02:05.413Z,100212.83
2017-12-26T02:04:33.020Z,100202.05
2017-12-26T02:07:00.752Z,100201.50
2017-12-26T02:09:28.435Z,100209.70
2017-12-26T02:11:56.165Z,100206.83
2017-12-26T02:14:23.834Z,100207.66
2017-12-26T02:16:51.551Z,100208.05
2017-12-26T02:19:19.240Z,100203.75
2017-12-26T02:21:46.955Z,100203.66
2017-12-26T02:24:14.628Z,100210.56
2017-12-26T02:26:42.365Z,100195.47
2017-12-26T02:29:10.046Z,100189.73
2017-12-26T02:31:37.677Z,100179.37
2017-12-26T02:34:05.390Z,100168.47
2017-12-26T02:36:33.071Z,100179.98
2017-12-26T02:39:00.798Z,100176.14
2017-12-26T02:41:28.407Z,100162.48
2017-12-26T02:43:56.119Z,100151.33
2017-12-26T02:46:23.812Z,100162.80
2017-12-26T02:48:51.567Z,100158.23
2017-12-26T02:51:19.249Z,100152.71
2017-12-26T02:53:46.967Z,100146.53
2017-12-26T02:56:14.577Z,100149.30
2017-12-26T02:58:42.298Z,100134.48
2017-12-26T03:01:09.997Z,100131.58
2017-12-26T03:03:37.796Z,100125.53
2017-12-26T03:06:05.475Z,100117.25
2017-12-26T03:08:33.139Z,100099.98
2017-12-26T03:11:00.836Z,100096.30
2017-12-26T03:13:28.578Z,100082.52
2017-12-26T03:15:56.192Z,100077.31
2017-12-26T03:18:24.955Z,100072.66
2017-12-26T03:20:52.634Z,100065.80
2017-12-26T03:23:20.296Z,100057.87
2017-12-26T03:25:47.978Z,100059.50
2017-12-26T03:28:15.695Z,100058.67
2017-12-26T03:30:43.313Z,100049.31
2017-12-26T03:33:11.029Z,100037.90
2017-12-26T03:35:38.726Z,100034.48
2017-12-26T03:38:06.455Z,100034.90
2017-12-26T03:40:34.136Z,100021.69
2017-12-26T03:43:01.893Z,100028.47
2017-12-26T03:45:29.578Z,100029.47
2017-12-26T03:47:57.298Z,100026.34
2017-12-26T03:50:24.976Z,100032.97
2017-12-26T03:52:52.648Z,100020.69
2017-12-26T03:55:20.339Z,100012.58
2017-12-26T03:57:48.057Z,100018.92
2017-12-26T04:00:15.736Z,100015.06
2017-12-26T04:02:43.456Z,100012.06
2017-12-26T04:05:11.183Z,100005.95
2017-12-26T04:07:38.924Z,100005.72
2017-12-26T04:10:06.612Z,100005.30
2017-12-26T04:12:34.344Z,100005.45
2017-12-26T04:15:02.076Z,99998.35
2017-12-26T04:17:29.772Z,99996.88
2017-12-26T04:19:57.505Z,99983.39
2017-12-26T04:22:25.202Z,99978.41
2017-12-26T04:24:52.928Z,99977.95
2017-12-26T04:27:20.606Z,99985.89
2017-12-26T04:29:48.327Z,99980.85
2017-12-26T04:32:15.936Z,99972.41
2017-12-26T04:34:43.648Z,99962.84
2017-12-26T04:37:11.332Z,99961.62
2017-12-26T04:39:39.063Z,99964.53
2017-12-26T04:42:06.742Z,99964.94
2017-12-26T04:44:34.471Z,99953.85
2017-12-26T04:47:02.162Z,99940.86
2017-12-26T04:49:29.888Z,99939.63
2017-12-26T04:51:57.546Z,99928.84
2017-12-26T04:54:25.262Z,99925.34
2017-12-26T04:56:52.934Z,99919.34
2017-12-26T04:59:20.659Z,99920.41
2017-12-26T05:01:49.113Z,99907.11
2017-12-26T05:04:16.892Z,99906.62
2017-12-26T05:06:44.588Z,99915.92
2017-12-26T05:09:12.245Z,99912.67
2017-12-26T05:11:39.866Z,99903.86
2017-12-26T05:14:07.585Z,99914.49
2017-12-26T05:16:35.200Z,99899.69
2017-12-26T05:19:02.923Z,99892.67
2017-12-26T05:21:30.604Z,99895.08
2017-12-26T05:23:58.319Z,99886.46
2017-12-26T05:26:26.013Z,99876.34
2017-12-26T05:28:53.711Z,99884.35
2017-12-26T05:31:21.392Z,99882.77
2017-12-26T05:33:49.055Z,99880.07
2017-12-26T05:36:16.727Z,99871.45
2017-12-26T05:38:44.392Z,99860.62
2017-12-26T05:41:12.008Z,99854.90
2017-12-26T05:43:39.749Z,99851.70
2017-12-26T05:46:07.418Z,99851.43
2017-12-26T05:48:35.037Z,99841.72
2017-12-26T05:51:02.704Z,99843.98
2017-12-26T05:53:30.310Z,99839.47
2017-12-26T05:55:58.077Z,99837.00
2017-12-26T05:58:25.689Z,99833.28
2017-12-26T06:00:53.404Z,99828.33
2017-12-26T06:03:21.072Z,99822.72
2017-12-26T06:05:48.829Z,99808.14
2017-12-26T06:08:16.499Z,99798.08
2017-12-26T06:10:44.155Z,99784.46
2017-12-26T06:13:11.837Z,99779.09
2017-12-26T06:15:39.563Z,99781.19
2017-12-26T06:18:07.233Z,99772.80
2017-12-26T06:20:34.918Z,99761.80
2017-12-26T06:23:02.592Z,99746.70
2017-12-26T06:25:30.312Z,99745.16
2017-12-26T06:27:57.925Z,99739.18
2017-12-26T06:30:25.649Z,99741.11
2017-12-26T06:32:53.272Z,99731.95
2017-12-26T06:35:21.000Z,99728.38
2017-12-26T06:37:48.682Z,99721.81
2017-12-26T06:40:16.353Z,99721.43
2017-12-26T06:42:44.036Z,99712.77
2017-12-26T06:45:11.784Z,99702.18
2017-12-26T06:47:39.453Z,99702.18
2017-12-26T06:50:07.178Z,99715.11
2017-12-26T06:52:34.803Z,99702.38
2017-12-26T06:55:02.529Z,99702.08
2017-12-26T06:57:30.131Z,99687.70
2017-12-26T06:59:57.867Z,99683.83
2017-12-26T07:02:25.492Z,99688.05
2017-12-26T07:04:53.252Z,99681.08
2017-12-26T07:07:20.951Z,99684.27
2017-12-26T07:09:48.674Z,99668.28
2017-12-26T07:12:16.334Z,99674.30
2017-12-26T07:14:44.888Z,99660.92
2017-12-26T07:17:12.574Z,99672.23
2017-12-26T07:19:42.670Z,99664.28
2017-12-26T07:22:15.920Z,99647.36
2017-12-26T07:24:43.689Z,99646.12
2017-12-26T07:27:11.417Z,99644.57
2017-12-26T07:29:39.156Z,99641.60
2017-12-26T07:32:06.831Z,99635.09
2017-12-26T07:34:34.548Z,99629.55
2017-12-26T07:37:02.223Z,99617.21
2017-12-26T07:39:29.910Z,99618.97
2017-12-26T07:41:57.627Z,99612.83
2017-12-26T07:44:25.299Z,99608.15
2017-12-26T07:46:53.944Z,99613.69
2017-12-26T07:49:21.553Z,99605.16
2017-12-26T07:51:49.299Z,99607.64
2017-12-26T07:54:16.960Z,99612.22
2017-12-26T07:56:44.611Z,99614.19
2017-12-26T07:59:12.264Z,99610.57
2017-12-26T08:01:39.928Z,99604.88
2017-12-26T08:04:07.687Z,99590.48
2017-12-26T08:06:35.362Z,99605.47
2017-12-26T08:09:03.012Z,99594.73
2017-12-26T08:11:30.681Z,99585.42
2017-12-26T08:13:58.385Z,99571.84
2017-12-26T08:16:26.060Z,99567.75
2017-12-26T08:18:53.708Z,99565.37
2017-12-26T08:21:21.395Z,99555.82
2017-12-26T08:23:49.059Z,99549.52
2017-12-26T08:26:17.009Z,99559.83
2017-12-26T08:28:44.624Z,99550.69
2017-12-26T08:31:12.281Z,99563.73
2017-12-26T08:33:39.945Z,99562.48
2017-12-26T08:36:07.627Z,99550.34
2017-12-26T08:38:35.244Z,99544.09
2017-12-26T08:41:02.916Z,99571.94
2017-12-26T08:43:30.582Z,99568.43
2017-12-26T08:45:58.259Z,99558.97
2017-12-26T08:48:25.892Z,99566.39
2017-12-26T08:50:53.578Z,99564.50
2017-12-26T08:53:21.202Z,99569.82
2017-12-26T08:55:48.870Z,99571.27
2017-12-26T08:58:16.480Z,99572.31
2017-12-26T09:00:44.138Z,99572.41
2017-12-26T09:03:11.760Z,99566.70
2017-12-26T09:05:39.433Z,99552.11
2017-12-26T09:08:07.102Z,99557.80
2017-12-26T09:10:34.773Z,99559.52
2017-12-26T09:13:02.406Z,99559.75
2017-12-26T09:15:30.073Z,99558.36
2017-12-26T09:17:57.804Z,99552.17
2017-12-26T09:20:25.446Z,99540.83
2017-12-26T09:22:53.165Z,99548.16
2017-12-26T09:25:20.820Z,99543.87
2017-12-26T09:27:48.516Z,99550.16
2017-12-26T09:30:16.171Z,99535.86
2017-12-26T09:32:43.849Z,99540.97
2017-12-26T09:35:11.531Z,99540.97
2017-12-26T09:37:39.206Z,99539.37
2017-12-26T09:40:06.888Z,99545.39
2017-12-26T09:42:34.570Z,99547.78
2017-12-26T09:45:02.249Z,99542.17
2017-12-26T09:47:29.966Z,99543.64
2017-12-26T09:49:57.577Z,99538.59
2017-12-26T09:52:25.248Z,99527.53
2017-12-26T09:54:52.861Z,99529.84
2017-12-26T09:57:20.525Z,99519.60
2017-12-26T09:59:48.223Z,99515.70
2017-12-26T10:02:16.099Z,99504.73
2017-12-26T10:04:43.831Z,99517.27
2017-12-26T10:07:11.561Z,99520.11
2017-12-26T10:09:39.251Z,99512.05
2017-12-26T10:12:06.948Z,99512.36
2017-12-26T10:14:34.589Z,99505.49
2017-12-26T10:17:02.261Z,99511.52
2017-12-26T10:19:29.942Z,99509.80
2017-12-26T10:21:57.681Z,99502.20
2017-12-26T10:24:25.377Z,99503.83
2017-12-26T10:26:53.052Z,99509.17
2017-12-26T10:29:20.670Z,99508.47
2017-12-26T10:31:48.384Z,99502.75
2017-12-26T10:34:16.087Z,99508.33
2017-12-26T10:36:43.820Z,99505.41
2017-12-26T10:39:11.506Z,99501.09
2017-12-26T10:41:39.197Z,99496.77
2017-12-26T10:44:06.829Z,99497.70
2017-12-26T10:46:34.510Z,99489.48
2017-12-26T10:49:02.208Z,99488.25
2017-12-26T10:51:29.904Z,99491.19
2017-12-26T10:53:57.527Z,99484.89
2017-12-26T10:56:25.152Z,99490.88
2017-12-26T10:58:52.817Z,99483.83
2017-12-26T11:01:20.429Z,99486.01
2017-12-26T11:03:48.113Z,99482.13
2017-12-26T11:06:15.786Z,99492.00
2017-12-26T11:08:43.483Z,99484.91
2017-12-26T11:11:11.148Z,99478.20
2017-12-26T11:13:38.810Z,99479.17
2017-12-26T11:16:06.432Z,99476.34
2017-12-26T11:18:34.167Z,99479.14
2017-12-26T11:21:01.818Z,99478.86
2017-12-26T11:23:29.498Z,99468.96
2017-12-26T11:25:57.108Z,99474.25
2017-12-26T11:28:24.825Z,99473.44
2017-12-26T11:30:52.448Z,99474.86
2017-12-26T11:33:20.114Z,99467.95
2017-12-26T11:35:47.747Z,99466.19
2017-12-26T11:38:15.419Z,99473.44
2017-12-26T11:40:43.103Z,99470.34
2017-12-26T11:43:10.787Z,99461.77
2017-12-26T11:45:38.412Z,99475.09
2017-12-26T11:48:06.159Z,99469.03
2017-12-26T11:50:33.778Z,99476.98
2017-12-26T11:53:01.452Z,99474.98
2017-12-26T11:55:29.080Z,99480.14
2017-12-26T11:57:56.762Z,99469.08
2017-12-26T12:00:24.391Z,99472.27
2017-12-26T12:02:52.059Z,99475.05
2017-12-26T12:05:19.675Z,99468.12
2017-12-26T12:07:47.336Z,99465.48
2017-12-26T12:10:14.955Z,99467.36
2017-12-26T12:12:42.622Z,99464.66
2017-12-26T12:15:10.238Z,99455.91
2017-12-26T12:17:37.981Z,99466.34
2017-12-26T12:20:05.600Z,99475.88
2017-12-26T12:22:33.260Z,99481.64
2017-12-26T12:25:00.877Z,99469.94
2017-12-26T12:27:28.563Z,99466.77
2017-12-26T12:29:56.181Z,99461.55
2017-12-26T12:32:23.928Z,99467.39
2017-12-26T12:34:51.616Z,99459.16
2017-12-26T12:37:20.195Z,99458.47
2017-12-26T12:39:47.925Z,99455.53
2017-12-26T12:42:15.549Z,99457.25
2017-12-26T12:44:43.211Z,99462.45
2017-12-26T12:47:10.894Z,99464.59
2017-12-26T12:49:38.552Z,99476.97
2017-12-26T12:52:06.202Z,99461.41
2017-12-26T12:54:33.867Z,99463.36
2017-12-26T12:57:01.495Z,99470.78
2017-12-26T12:59:29.152Z,99468.58
2017-12-26T13:01:56.797Z,99468.73
2017-12-26T13:04:24.497Z,99468.42
2017-12-26T13:06:52.125Z,99476.23
2017-12-26T13:09:19.819Z,99477.47
2017-12-26T13:11:47.467Z,99459.84
2017-12-26T13:14:15.145Z,99477.21
2017-12-26T13:16:42.780Z,99483.25
2017-12-26T13:19:10.449Z,99481.86
2017-12-26T13:21:38.073Z,99477.95
2017-12-26T13:24:05.738Z,99482.75
2017-12-26T13:26:33.427Z,99479.98
2017-12-26T13:29:01.093Z,99480.91
2017-12-26T13:31:28.784Z,99484.72
2017-12-26T13:33:56.650Z,99495.12
2017-12-26T13:36:24.280Z,99480.97
2017-12-26T13:38:51.931Z,99489.69
2017-12-26T13:41:19.552Z,99472.58
2017-12-26T13:43:47.215Z,99472.58
2017-12-26T13:46:14.856Z,99480.80
2017-12-26T13:48:42.514Z,99487.16
2017-12-26T13:51:10.178Z,99478.12
2017-12-26T13:53:37.932Z,99489.59
2017-12-26T13:56:05.763Z,99487.91
2017-12-26T13:58:33.422Z,99497.84
2017-12-26T14:01:01.049Z,99517.08
2017-12-26T14:03:28.725Z,99512.63
2017-12-26T14:05:56.370Z,99531.55
2017-12-26T14:08:24.102Z,99530.97
2017-12-26T14:10:51.691Z,99518.75
2017-12-26T14:13:19.295Z,99534.33
2017-12-26T14:15:46.952Z,99535.43
2017-12-26T14:18:14.597Z,99538.63
2017-12-26T14:20:42.258Z,99536.55
2017-12-26T14:23:09.866Z,99539.02
2017-12-26T14:25:37.518Z,99536.25
2017-12-26T14:28:05.178Z,99537.13
2017-12-26T14:30:32.840Z,99532.64
2017-12-26T14:33:01.585Z,99531.67
2017-12-26T14:35:29.247Z,99552.95
2017-12-26T14:37:56.879Z,99546.45
2017-12-26T14:40:24.545Z,99552.53
2017-12-26T14:42:52.190Z,99552.50
2017-12-26T14:45:19.860Z,99564.04
2017-12-26T14:47:47.480Z,99571.16
2017-12-26T14:50:15.130Z,99576.25
2017-12-26T14:52:42.756Z,99581.55
2017-12-26T14:55:10.420Z,99587.48
2017-12-26T14:57:38.056Z,99580.65
2017-12-26T15:00:05.844Z,99577.44
2017-12-26T15:02:33.557Z,99573.77
2017-12-26T15:05:01.344Z,99573.94
2017-12-26T15:07:28.951Z,99581.47
2017-12-26T15:09:56.600Z,99570.16
2017-12-26T15:12:24.211Z,99567.37
2017-12-26T15:14:51.866Z,99566.34
2017-12-26T15:17:19.516Z,99567.78
2017-12-26T15:19:47.187Z,99574.37
2017-12-26T15:22:14.902Z,99585.34
2017-12-26T15:24:42.668Z,99582.73
2017-12-26T15:27:10.376Z,99584.31
2017-12-26T15:29:38.101Z,99585.94
2017-12-26T15:32:05.741Z,99586.14
2017-12-26T15:34:33.397Z,99597.66
2017-12-26T15:37:01.008Z,99603.09
2017-12-26T15:39:28.663Z,99593.81
2017-12-26T15:41:56.269Z,99593.48
2017-12-26T15:44:24.001Z,99591.25
2017-12-26T15:46:51.661Z,99596.48
2017-12-26T15:49:19.349Z,99598.13
2017-12-26T15:51:46.978Z,99597.80
2017-12-26T15:54:14.606Z,99596.66
2017-12-26T15:56:42.339Z,99605.78
2017-12-26T15:59:09.944Z,99602.81
2017-12-26T16:01:37.663Z,99602.15
2017-12-26T16:04:05.295Z,99604.85
2017-12-26T16:06:33.096Z,99611.81
2017-12-26T16:09:00.708Z,99614.89
2017-12-26T16:11:28.463Z,99611.84
2017-12-26T16:13:56.077Z,99620.09
2017-12-26T16:16:23.744Z,99631.23
2017-12-26T16:18:51.402Z,99627.30
2017-12-26T16:21:19.056Z,99627.41
2017-12-26T16:23:46.658Z,99632.69
2017-12-26T16:26:14.328Z,99631.91
2017-12-26T16:28:42.009Z,99628.16
2017-12-26T16:31:09.675Z,99637.14
2017-12-26T16:33:37.288Z,99637.70
2017-12-26T16:36:04.976Z,99639.45
2017-12-26T16:38:32.651Z,99632.30
2017-12-26T16:41:00.308Z,99640.34
2017-12-26T16:43:27.930Z,99635.17
2017-12-26T16:45:55.607Z,99624.86
2017-12-26T16:48:23.233Z,99634.39
2017-12-26T16:50:50.884Z,99634.59
2017-12-26T16:53:18.576Z,99633.77
2017-12-26T16:55:46.250Z,99626.92
2017-12-26T16:58:13.868Z,99632.53
2017-12-26T17:00:41.525Z,99639.20
2017-12-26T17:03:09.183Z,99636.03
2017-12-26T17:05:36.842Z,99636.53
2017-12-26T17:08:06.996Z,99643.22
2017-12-26T17:10:34.695Z,99646.02
2017-12-26T17:13:02.295Z,99654.04
2017-12-26T17:15:29.979Z,99645.59
2017-12-26T17:17:57.644Z,99644.53
2017-12-26T17:20:25.350Z,99649.30
2017-12-26T17:22:53.011Z,99653.76
2017-12-26T17:25:20.678Z,99651.79
2017-12-26T17:27:48.346Z,99657.11
2017-12-26T17:30:16.028Z,99660.88
2017-12-26T17:32:43.645Z,99656.23
2017-12-26T17:35:11.271Z,99665.13
2017-12-26T17:37:38.973Z,99670.58
2017-12-26T17:40:06.580Z,99672.81
2017-12-26T17:42:34.252Z,99673.05
2017-12-26T17:45:01.903Z,99675.72
2017-12-26T17:47:29.787Z,99672.13
2017-12-26T17:49:57.471Z,99673.69
2017-12-26T17:52:25.537Z,99673.78
2017-12-26T17:54:53.155Z,99674.75
2017-12-26T17:57:20.841Z,99677.25
2017-12-26T17:59:48.627Z,99672.94
2017-12-26T18:02:16.337Z,99668.89
2017-12-26T18:04:44.024Z,99678.50
2017-12-26T18:07:11.702Z,99672.30
2017-12-26T18:09:39.328Z,99675.97
2017-12-26T18:12:06.983Z,99677.34
2017-12-26T18:14:34.638Z,99680.27
2017-12-26T18:17:02.299Z,99678.03
2017-12-26T18:25:18.367Z,99688.69
2017-12-26T18:27:46.044Z,99686.81
2017-12-26T18:30:13.767Z,99685.42
2017-12-26T18:32:41.542Z,99686.60
2017-12-26T18:35:09.196Z,99683.37
2017-12-26T18:37:36.972Z,99682.51
2017-12-26T18:40:04.848Z,99677.19
2017-12-26T18:42:36.866Z,99681.27
2017-12-26T18:45:04.684Z,99682.11
2017-12-26T18:47:32.582Z,99686.61
2017-12-26T18:50:00.195Z,99683.92
2017-12-26T18:52:27.856Z,99688.22
2017-12-26T18:54:55.516Z,99685.98
2017-12-26T18:57:23.217Z,99687.45
2017-12-26T18:59:50.870Z,99691.80
2017-12-26T19:02:18.591Z,99679.30
2017-12-26T19:04:46.354Z,99685.11
2017-12-26T19:07:14.092Z,99691.05
2017-12-26T19:09:41.722Z,99674.88
2017-12-26T19:12:09.420Z,99670.09
2017-12-26T19:14:37.107Z,99668.42
2017-12-26T19:17:04.811Z,99669.87
2017-12-26T19:19:32.485Z,99665.14
2017-12-26T19:22:00.249Z,99667.44
2017-12-26T19:24:27.894Z,99664.95
2017-12-26T19:26:55.633Z,99670.36
2017-12-26T19:29:23.314Z,99665.69
2017-12-26T19:31:50.963Z,99663.78
2017-12-26T19:34:18.648Z,99671.88
2017-12-26T19:36:46.392Z,99666.44
2017-12-26T19:39:14.070Z,99671.55
2017-12-26T19:41:41.807Z,99666.27
2017-12-26T19:44:09.459Z,99658.40
2017-12-26T19:46:37.242Z,99662.85
2017-12-26T19:49:04.934Z,99667.40
2017-12-26T19:51:32.620Z,99664.33
2017-12-26T19:54:00.415Z,99658.95
2017-12-26T19:56:28.148Z,99660.50
2017-12-26T19:58:55.863Z,99659.33
2017-12-26T20:01:23.589Z,99658.78
2017-12-26T20:03:51.401Z,99659.06
2017-12-26T20:06:19.182Z,99662.10
2017-12-26T20:08:46.945Z,99661.33
2017-12-26T20:11:14.670Z,99665.92
2017-12-26T20:13:42.452Z,99653.94
2017-12-26T20:16:10.135Z,99658.17
2017-12-26T20:18:37.898Z,99656.89
2017-12-26T20:21:05.627Z,99651.25
2017-12-26T20:23:33.388Z,99651.89
2017-12-26T20:26:01.122Z,99647.90
2017-12-26T20:28:34.400Z,99646.34
2017-12-26T20:31:02.071Z,99645.06
2017-12-26T20:33:29.788Z,99646.44
2017-12-26T20:35:57.518Z,99649.66
2017-12-26T20:38:25.270Z,99652.50
2017-12-26T20:40:53.000Z,99648.50
2017-12-26T20:43:20.750Z,99648.97
2017-12-26T20:45:48.502Z,99654.98
2017-12-26T20:48:16.271Z,99647.81
2017-12-26T20:50:43.994Z,99653.38
2017-12-26T20:53:11.777Z,99645.57
2017-12-26T20:55:39.499Z,99652.27
2017-12-26T20:58:07.263Z,99644.18
2017-12-26T21:00:34.997Z,99637.11
2017-12-26T21:03:02.762Z,99630.73
2017-12-26T21:05:30.542Z,99633.66
2017-12-26T21:07:58.313Z,99633.99
2017-12-26T21:10:26.123Z,99639.19
2017-12-26T21:12:53.903Z,99635.42
2017-12-26T21:15:21.645Z,99624.81
2017-12-26T21:17:49.340Z,99622.97
2017-12-26T21:20:17.063Z,99624.12
2017-12-26T21:22:44.856Z,99616.47
2017-12-26T21:25:12.572Z,99614.25
2017-12-26T21:27:40.313Z,99611.78
2017-12-26T21:30:08.085Z,99599.84
2017-12-26T21:32:35.844Z,99608.38
2017-12-26T21:35:03.611Z,99610.53
2017-12-26T21:37:31.351Z,99611.41
2017-12-26T21:39:59.129Z,99601.95
2017-12-26T21:42:26.850Z,99602.63
2017-12-26T21:44:54.639Z,99607.22
2017-12-26T21:47:22.299Z,99609.34
2017-12-26T21:49:50.075Z,99605.67
2017-12-26T21:52:17.808Z,99603.05
2017-12-26T21:54:45.522Z,99601.45
2017-12-26T21:57:13.203Z,99601.62
2017-12-26T21:59:40.975Z,99600.39
2017-12-26T22:02:08.727Z,99601.36
2017-12-26T22:04:36.549Z,99600.66
2017-12-26T22:07:04.205Z,99604.16
2017-12-26T22:09:31.975Z,99600.94
2017-12-26T22:11:59.712Z,99599.78
2017-12-26T22:14:27.484Z,99600.70
2017-12-26T22:16:55.694Z,99597.63
2017-12-26T22:19:23.456Z,99601.23
2017-12-26T22:21:51.205Z,99603.34
2017-12-26T22:24:18.988Z,99600.98
2017-12-26T22:26:46.729Z,99600.41
2017-12-26T22:29:14.501Z,99595.99
2017-12-26T22:31:42.242Z,99595.33
2017-12-26T22:34:10.012Z,99595.23
2017-12-26T22:36:37.755Z,99589.09
2017-12-26T22:39:05.524Z,99587.14
2017-12-26T22:41:33.270Z,99585.27
2017-12-26T22:44:01.050Z,99584.27
2017-12-26T22:46:28.701Z,99579.93
2017-12-26T22:48:56.465Z,99581.48
2017-12-26T22:51:24.186Z,99575.57
2017-12-26T22:53:51.978Z,99576.53
2017-12-26T22:56:20.284Z,99577.42
2017-12-26T22:58:48.164Z,99577.90
2017-12-26T23:01:15.858Z,99570.72
2017-12-26T23:03:43.565Z,99567.10
2017-12-26T23:06:11.280Z,99577.66
2017-12-26T23:08:38.993Z,99575.31
2017-12-26T23:11:06.732Z,99573.06
2017-12-26T23:13:35.334Z,99571.06
2017-12-26T23:16:08.796Z,99576.22
2017-12-26T23:18:36.575Z,99567.77
2017-12-26T23:21:05.931Z,99568.21
2017-12-26T23:23:39.286Z,99566.42
2017-12-26T23:26:12.907Z,99562.45
2017-12-26T23:28:46.108Z,99569.58
2017-12-26T23:31:19.334Z,99560.66
2017-12-26T23:33:52.683Z,99558.66
2017-12-26T23:36:26.129Z,99562.69
2017-12-26T23:38:59.502Z,99561.88
2017-12-26T23:41:32.802Z,99554.46
2017-12-26T23:44:06.218Z,99548.14
2017-12-26T23:46:39.682Z,99545.13
2017-12-26T23:49:12.925Z,99537.47
2017-12-26T23:51:46.222Z,99539.86
2017-12-26T23:54:29.756Z,99530.94
2017-12-26T23:57:03.029Z,99535.36
2017-12-26T23:59:36.166Z,99527.23
